Catàleg de serveis del Meteocat
Campanya meteocatpedra

Dades de l'estació automàtica Tremp

?
?
Resum diari 21:30 TU
Dades diàries de l'estació meteorològica
Temperatura mitjana 20.0 °C
Temperatura màxima 27.5 °C 14:08 TU
Temperatura mínima 15.7 °C 3:08 TU
Humitat relativa mitjana 71%
Precipitació acumulada 0.9 mm
Ratxa màxima del vent (10 m) 25.9 km/h - 113º 18:29 TU
Irradiació solar global 13.6 MJ/m2

El tram horari està expressat en Temps Universal (TU). Cal sumar una hora en horari d'hivern i dues en horari d'estiu per passar a l'hora oficial.

Tremp

Metadades estació meteorol´gica
Municipi Tremp
Comarca Pallars Jussà
Altitud 473 m
Data alta 22.10.2012
Estat actual Operativa
Dades de període
Període
TU
TM
°C
TX
°C
TN
°C
HRM
%
PPT
mm
VVM (10 m)
km/h
DVM (10 m)
graus
VVX (10 m)
km/h
RS
W/m2
00:00 - 00:30 16.9 17.2 16.8 80 0.0 5.8 275 9.4 0
00:30 - 01:00 17.0 17.2 16.4 80 0.0 3.6 287 6.5 0
01:00 - 01:30 16.4 16.6 16.2 83 0.0 1.8 295 4.3 0
01:30 - 02:00 16.3 16.5 16.1 84 0.0 1.4 273 5.0 0
02:00 - 02:30 16.2 16.3 16.2 85 0.0 0.7 294 2.5 0
02:30 - 03:00 16.1 16.2 15.9 86 0.0 2.9 217 4.3 0
03:00 - 03:30 15.8 16.0 15.7 88 0.0 1.8 267 4.0 0
03:30 - 04:00 16.0 16.1 15.9 87 0.0 4.0 304 7.2 0
04:00 - 04:30 16.0 16.1 15.8 87 0.0 4.0 320 9.7 0
04:30 - 05:00 16.1 16.5 15.8 86 0.0 3.6 340 10.4 0
05:00 - 05:30 16.4 16.6 16.3 84 0.0 2.2 319 5.4 0
05:30 - 06:00 16.8 16.9 16.6 83 0.0 4.0 332 10.4 0
06:00 - 06:30 17.1 17.3 16.9 82 0.0 4.0 7 11.5 8
06:30 - 07:00 16.9 17.3 16.6 85 0.8 5.0 7 13.7 10
07:00 - 07:30 16.4 16.6 16.1 90 0.1 4.3 25 11.9 21
07:30 - 08:00 16.7 16.8 16.5 91 0.0 1.1 296 3.6 64
08:00 - 08:30 17.0 17.2 16.8 89 0.0 2.9 22 7.2 50
08:30 - 09:00 17.0 17.1 16.9 88 0.0 7.2 23 15.5 61
09:00 - 09:30 17.2 17.8 17.0 89 0.0 5.4 204 9.4 150
09:30 - 10:00 18.8 19.4 17.9 83 0.0 4.3 137 9.7 571
10:00 - 10:30 20.4 20.9 19.6 74 0.0 3.2 353 10.4 704
10:30 - 11:00 21.4 22.2 20.7 69 0.0 3.2 325 9.4 740
11:00 - 11:30 23.0 23.8 22.2 64 0.0 2.9 281 9.4 768
11:30 - 12:00 24.0 24.7 23.5 57 0.0 4.3 197 10.1 735
12:00 - 12:30 24.8 25.5 24.1 53 0.0 5.8 180 14.0 738
12:30 - 13:00 25.2 26.3 24.2 50 0.0 4.7 199 14.0 555
13:00 - 13:30 25.0 26.2 24.2 48 0.0 9.0 147 18.4 330
13:30 - 14:00 25.8 26.9 24.3 45 0.0 7.2 176 15.1 591
14:00 - 14:30 26.7 27.5 25.9 42 0.0 8.6 156 18.0 514
14:30 - 15:00 25.6 26.7 24.8 44 0.0 10.1 147 19.4 290
15:00 - 15:30 25.5 26.0 25.1 43 0.0 11.5 159 22.0 258
15:30 - 16:00 25.2 25.6 25.1 42 0.0 10.1 173 17.3 136
16:00 - 16:30 25.4 25.9 24.7 41 0.0 9.4 174 15.5 173
16:30 - 17:00 24.3 24.7 23.7 52 0.0 9.0 154 14.4 100
17:00 - 17:30 23.2 23.7 22.7 55 0.0 7.6 127 13.0 34
17:30 - 18:00 22.2 22.7 21.6 65 0.0 12.6 111 22.7 10
18:00 - 18:30 21.6 21.6 21.5 65 0.0 14.8 117 25.9 0
18:30 - 19:00 21.4 21.6 21.1 64 0.0 11.5 116 25.9 0
19:00 - 19:30 20.8 21.1 20.6 67 0.0 8.3 111 19.8 0
19:30 - 20:00 20.7 20.9 20.4 68 0.0 6.1 118 17.3 0
20:00 - 20:30 19.5 20.4 18.7 73 0.0 5.4 260 10.4 0
20:30 - 21:00 18.6 18.8 18.3 77 0.0 5.8 268 9.7 0
21:00 - 21:30 18.5 19.5 18.1 77 0.0 3.6 282 9.0 0
21:30 - 22:00 19.0 19.5 18.5 75 0.0 2.9 283 9.4 0

Les dades en taronja només han passat un control de qualitat automàtic. Resta pendent la seva validació definitiva.